Time;durP1;ratioP1;P1;durP2;ratioP2;P2;SDS_P1;SDS_P2;PMS_P1;PMS_P2;Temp;Humidity;BMP_temperature;BMP_pressure;BME280_temperature;BME280_humidity;BME280_pressure;Samples;Min_cycle;Max_cycle;Signal;HPM_P1;HPM_P2
2023/12/16 00:00:54;;;;;;;5.23;1.27;;;;;;;;;;6183838;23;20177;-83
2023/12/16 00:03:22;;;;;;;1.53;1.43;;;;;;;;;;6184406;23;20173;-84
2023/12/16 00:05:53;;;;;;;3.07;2.30;;;;;;;;;;6184160;23;20178;-84
2023/12/16 00:08:21;;;;;;;4.20;1.30;;;;;;;;;;6183628;23;20202;-84
2023/12/16 00:10:51;;;;;;;3.40;1.53;;;;;;;;;;6184049;23;20181;-84
2023/12/16 00:13:25;;;;;;;2.13;1.50;;;;;;;;;;6183844;23;20218;-83
2023/12/16 00:15:53;;;;;;;2.27;1.77;;;;;;;;;;6183662;23;20186;-84
2023/12/16 00:18:22;;;;;;;3.97;1.93;;;;;;;;;;6182659;23;20178;-84
2023/12/16 00:20:51;;;;;;;1.57;1.50;;;;;;;;;;6184076;23;20192;-83
2023/12/16 00:23:19;;;;;;;7.43;3.20;;;;;;;;;;6183804;23;20234;-83
2023/12/16 00:25:47;;;;;;;3.03;2.23;;;;;;;;;;6183741;23;20178;-84
2023/12/16 00:28:16;;;;;;;6.47;3.10;;;;;;;;;;6182791;23;20182;-84
2023/12/16 00:30:46;;;;;;;3.17;2.40;;;;;;;;;;6183515;23;20197;-83
2023/12/16 00:33:14;;;;;;;22.03;2.10;;;;;;;;;;6183431;23;20181;-84
2023/12/16 00:36:00;;;;;;;1.83;1.43;;;;;;;;;;5130041;27;20546;-84
2023/12/16 00:38:29;;;;;;;2.90;1.10;;;;;;;;;;5129343;28;20228;-84
2023/12/16 00:40:57;;;;;;;6.40;2.83;;;;;;;;;;5130331;28;20209;-84
2023/12/16 00:43:26;;;;;;;7.03;2.60;;;;;;;;;;5130297;28;20219;-84
2023/12/16 00:45:54;;;;;;;1.77;1.47;;;;;;;;;;5130165;28;20266;-84
2023/12/16 00:48:23;;;;;;;3.10;1.73;;;;;;;;;;5129725;28;20198;-84
2023/12/16 00:50:51;;;;;;;4.73;1.37;;;;;;;;;;5129800;28;20195;-87
2023/12/16 00:53:21;;;;;;;5.33;1.90;;;;;;;;;;5129642;28;20193;-87
2023/12/16 00:55:50;;;;;;;3.87;1.30;;;;;;;;;;5129481;28;20210;-87
2023/12/16 00:58:19;;;;;;;9.73;2.73;;;;;;;;;;5129211;28;20228;-87
2023/12/16 01:00:48;;;;;;;7.23;1.33;;;;;;;;;;5129691;28;20202;-87
2023/12/16 01:03:16;;;;;;;1.40;1.30;;;;;;;;;;5129744;28;20199;-86
2023/12/16 01:05:45;;;;;;;2.87;2.57;;;;;;;;;;5129668;28;20196;-87
2023/12/16 01:08:13;;;;;;;6.70;2.47;;;;;;;;;;5128600;28;20194;-87
2023/12/16 01:10:43;;;;;;;10.93;0.97;;;;;;;;;;5129511;28;20202;-87
2023/12/16 01:13:11;;;;;;;8.87;2.90;;;;;;;;;;5129780;28;20209;-87
2023/12/16 01:15:40;;;;;;;2.90;1.17;;;;;;;;;;5129689;28;20306;-87
2023/12/16 01:18:09;;;;;;;6.27;1.40;;;;;;;;;;5128748;28;20222;-87
2023/12/16 01:20:37;;;;;;;7.40;1.90;;;;;;;;;;5129300;28;20301;-86
2023/12/16 01:23:06;;;;;;;5.20;2.97;;;;;;;;;;5129295;28;20202;-84
2023/12/16 01:25:34;;;;;;;3.37;1.50;;;;;;;;;;5129094;28;20208;-84
2023/12/16 01:28:04;;;;;;;5.03;2.80;;;;;;;;;;5128342;28;20313;-84
2023/12/16 01:30:33;;;;;;;19.17;4.03;;;;;;;;;;5128980;28;20229;-84
2023/12/16 01:33:01;;;;;;;2.57;1.47;;;;;;;;;;5129165;28;20197;-84
2023/12/16 01:35:30;;;;;;;6.90;1.73;;;;;;;;;;5128858;28;20252;-84
2023/12/16 01:37:58;;;;;;;4.57;2.63;;;;;;;;;;5128058;28;20282;-84
2023/12/16 01:40:27;;;;;;;9.73;2.93;;;;;;;;;;5128892;28;20201;-84
2023/12/16 01:42:56;;;;;;;7.17;3.23;;;;;;;;;;5128708;28;20197;-84
2023/12/16 01:45:26;;;;;;;6.23;2.93;;;;;;;;;;5126187;28;20195;-84
2023/12/16 01:47:54;;;;;;;12.80;3.63;;;;;;;;;;5114577;28;20239;-84
2023/12/16 01:50:23;;;;;;;17.33;4.00;;;;;;;;;;5114628;28;20291;-84
2023/12/16 01:52:53;;;;;;;10.53;3.53;;;;;;;;;;5115206;28;20251;-84
2023/12/16 01:55:21;;;;;;;13.30;3.00;;;;;;;;;;5114733;28;20369;-84
2023/12/16 01:57:50;;;;;;;18.10;4.83;;;;;;;;;;5114360;28;20224;-84
2023/12/16 02:00:20;;;;;;;12.57;3.70;;;;;;;;;;5114436;28;20201;-84
2023/12/16 02:02:50;;;;;;;16.77;5.10;;;;;;;;;;5114805;28;20229;-84
2023/12/16 02:05:19;;;;;;;13.50;4.33;;;;;;;;;;5114508;28;20193;-84
2023/12/16 02:07:47;;;;;;;3.13;1.20;;;;;;;;;;5114365;28;20235;-84
2023/12/16 02:10:16;;;;;;;21.97;2.73;;;;;;;;;;5113952;28;20196;-84
2023/12/16 02:12:44;;;;;;;9.13;3.83;;;;;;;;;;5114682;28;20200;-84
2023/12/16 02:15:13;;;;;;;15.80;3.23;;;;;;;;;;5115078;28;20213;-84
2023/12/16 02:17:41;;;;;;;1.27;1.20;;;;;;;;;;5114129;28;20201;-84
2023/12/16 02:20:15;;;;;;;14.77;5.77;;;;;;;;;;5114351;28;20198;-84
2023/12/16 02:22:44;;;;;;;7.90;2.50;;;;;;;;;;5114772;28;20198;-83
2023/12/16 02:25:15;;;;;;;12.23;2.43;;;;;;;;;;5115039;28;20485;-83
2023/12/16 02:27:44;;;;;;;17.07;4.97;;;;;;;;;;5114103;28;20203;-84
2023/12/16 02:30:13;;;;;;;9.00;4.03;;;;;;;;;;5114276;28;20210;-84
2023/12/16 02:32:42;;;;;;;2.13;1.47;;;;;;;;;;5114524;28;20198;-84
2023/12/16 02:35:11;;;;;;;5.23;1.80;;;;;;;;;;5113886;28;20230;-84
2023/12/16 02:37:39;;;;;;;14.27;3.63;;;;;;;;;;5113756;28;20206;-84
2023/12/16 02:40:09;;;;;;;1.80;1.70;;;;;;;;;;5113998;28;20277;-84
2023/12/16 02:42:39;;;;;;;13.17;3.60;;;;;;;;;;5114864;28;20206;-84
2023/12/16 02:45:08;;;;;;;5.83;2.77;;;;;;;;;;5113912;28;20215;-84
2023/12/16 02:47:36;;;;;;;6.67;3.60;;;;;;;;;;5114324;28;20203;-84
2023/12/16 02:50:07;;;;;;;4.40;1.90;;;;;;;;;;5113504;28;20198;-84
2023/12/16 02:52:35;;;;;;;5.83;4.23;;;;;;;;;;5113695;28;20205;-84
2023/12/16 02:55:04;;;;;;;9.33;4.13;;;;;;;;;;5114076;28;20199;-84
2023/12/16 02:57:32;;;;;;;7.70;3.23;;;;;;;;;;5112400;28;20203;-84
2023/12/16 03:00:02;;;;;;;17.37;2.23;;;;;;;;;;5113439;28;20202;-84
2023/12/16 03:02:31;;;;;;;2.50;2.30;;;;;;;;;;5113934;28;20213;-84
2023/12/16 03:05:00;;;;;;;13.27;3.57;;;;;;;;;;5113631;28;20207;-84
2023/12/16 03:07:28;;;;;;;7.33;2.87;;;;;;;;;;5113418;28;20231;-84
2023/12/16 03:09:57;;;;;;;7.00;2.43;;;;;;;;;;5112770;28;20237;-84
2023/12/16 03:12:25;;;;;;;10.30;4.10;;;;;;;;;;5113638;28;20226;-84
2023/12/16 03:14:54;;;;;;;5.63;1.20;;;;;;;;;;5113663;28;20223;-84
2023/12/16 03:17:24;;;;;;;2.30;1.67;;;;;;;;;;5113182;28;20382;-84
2023/12/16 03:19:52;;;;;;;14.10;3.83;;;;;;;;;;5112711;28;20206;-84
2023/12/16 03:22:21;;;;;;;20.90;4.43;;;;;;;;;;5113416;28;20203;-84
2023/12/16 03:24:51;;;;;;;13.17;2.40;;;;;;;;;;5113356;28;20297;-84
2023/12/16 03:27:19;;;;;;;2.53;1.80;;;;;;;;;;5113136;28;20198;-84
2023/12/16 03:29:48;;;;;;;2.20;2.00;;;;;;;;;;5112386;28;20197;-84
2023/12/16 03:32:17;;;;;;;8.17;2.43;;;;;;;;;;5113236;28;20194;-84
2023/12/16 03:34:47;;;;;;;9.93;2.50;;;;;;;;;;5113004;28;20231;-84
2023/12/16 03:37:15;;;;;;;7.90;3.90;;;;;;;;;;5112964;28;20219;-84
2023/12/16 03:39:44;;;;;;;10.07;2.67;;;;;;;;;;5113028;28;20206;-84
2023/12/16 03:42:15;;;;;;;6.13;2.30;;;;;;;;;;5112358;28;20221;-84
2023/12/16 03:44:46;;;;;;;13.20;4.53;;;;;;;;;;5113387;28;20218;-84
2023/12/16 03:47:15;;;;;;;12.03;3.67;;;;;;;;;;5112763;28;20198;-84
2023/12/16 03:49:44;;;;;;;15.70;4.03;;;;;;;;;;5112269;28;20209;-84
2023/12/16 03:52:14;;;;;;;23.90;5.80;;;;;;;;;;5112744;28;20195;-84
2023/12/16 03:54:42;;;;;;;22.03;5.50;;;;;;;;;;5112844;28;20250;-83
2023/12/16 03:57:11;;;;;;;15.33;4.87;;;;;;;;;;5112638;28;20267;-84
2023/12/16 03:59:39;;;;;;;11.23;4.70;;;;;;;;;;5112119;28;20209;-84
2023/12/16 04:02:07;;;;;;;18.90;5.53;;;;;;;;;;5112383;28;20381;-84
2023/12/16 04:04:36;;;;;;;17.97;5.33;;;;;;;;;;5112735;28;20248;-84
2023/12/16 04:07:05;;;;;;;17.93;6.83;;;;;;;;;;5112722;28;20205;-84
2023/12/16 04:09:34;;;;;;;17.77;4.43;;;;;;;;;;5112137;28;20201;-84
2023/12/16 04:12:03;;;;;;;14.40;3.33;;;;;;;;;;5112529;28;20205;-84
2023/12/16 04:14:31;;;;;;;14.00;3.93;;;;;;;;;;5112368;28;20213;-84
2023/12/16 04:17:00;;;;;;;14.33;3.97;;;;;;;;;;5112654;28;20226;-84
2023/12/16 04:19:29;;;;;;;14.27;3.43;;;;;;;;;;5112151;28;20271;-83
2023/12/16 04:21:58;;;;;;;11.77;5.77;;;;;;;;;;5112130;28;20207;-84
2023/12/16 04:24:27;;;;;;;15.67;5.33;;;;;;;;;;5112705;28;20186;-84
2023/12/16 04:26:57;;;;;;;6.73;3.00;;;;;;;;;;5112305;28;20199;-84
2023/12/16 04:29:25;;;;;;;9.83;4.00;;;;;;;;;;5111722;28;20204;-84
2023/12/16 04:31:53;;;;;;;4.33;3.00;;;;;;;;;;5111925;28;20210;-84
2023/12/16 04:34:22;;;;;;;14.20;4.17;;;;;;;;;;5112304;28;20229;-83
2023/12/16 04:36:50;;;;;;;9.40;3.33;;;;;;;;;;5112492;28;20234;-84
2023/12/16 04:39:19;;;;;;;14.57;5.23;;;;;;;;;;5112248;28;20202;-84
2023/12/16 04:41:47;;;;;;;12.43;4.23;;;;;;;;;;5111942;28;20214;-83
2023/12/16 04:44:17;;;;;;;25.60;6.10;;;;;;;;;;5112427;28;20226;-84
2023/12/16 04:46:46;;;;;;;18.27;5.97;;;;;;;;;;5112484;28;20197;-84
2023/12/16 04:49:14;;;;;;;16.93;5.40;;;;;;;;;;5112056;28;20202;-84
2023/12/16 04:51:43;;;;;;;28.27;6.03;;;;;;;;;;5111699;28;20240;-84
2023/12/16 04:54:11;;;;;;;16.63;3.30;;;;;;;;;;5112122;28;20205;-84
2023/12/16 04:56:39;;;;;;;21.90;6.27;;;;;;;;;;5112161;28;20219;-84
2023/12/16 04:59:08;;;;;;;25.57;7.03;;;;;;;;;;5111776;28;20210;-84
2023/12/16 05:01:38;;;;;;;13.50;3.13;;;;;;;;;;5111496;28;20229;-83
2023/12/16 05:04:06;;;;;;;17.33;5.63;;;;;;;;;;5111651;28;20209;-84
2023/12/16 05:06:35;;;;;;;11.23;3.60;;;;;;;;;;5112323;28;20275;-84
2023/12/16 05:09:08;;;;;;;5.97;2.87;;;;;;;;;;5111857;28;20253;-83
2023/12/16 05:11:37;;;;;;;5.13;2.23;;;;;;;;;;5111872;28;20258;-84
2023/12/16 05:14:05;;;;;;;9.33;3.93;;;;;;;;;;5111842;28;20209;-84
2023/12/16 05:16:34;;;;;;;7.23;3.03;;;;;;;;;;5112005;28;20221;-84
2023/12/16 05:19:04;;;;;;;11.63;4.80;;;;;;;;;;5111459;28;20212;-84
2023/12/16 05:21:32;;;;;;;11.03;3.20;;;;;;;;;;5113496;28;20201;-86
2023/12/16 05:24:01;;;;;;;19.80;5.43;;;;;;;;;;5116048;28;20255;-87
2023/12/16 05:26:29;;;;;;;26.97;5.83;;;;;;;;;;5115750;28;20251;-86
2023/12/16 05:28:58;;;;;;;14.03;4.10;;;;;;;;;;5115237;28;20386;-87
2023/12/16 05:31:26;;;;;;;12.10;2.67;;;;;;;;;;5114654;28;20195;-87
2023/12/16 05:33:55;;;;;;;18.67;3.53;;;;;;;;;;5115459;28;20194;-84
2023/12/16 05:36:24;;;;;;;13.03;2.50;;;;;;;;;;5115499;28;20482;-84
2023/12/16 05:38:53;;;;;;;3.43;2.57;;;;;;;;;;5115227;28;20373;-84
2023/12/16 05:41:22;;;;;;;10.20;2.43;;;;;;;;;;5115031;28;20202;-84
2023/12/16 05:43:50;;;;;;;5.40;3.23;;;;;;;;;;5115423;28;20232;-84
2023/12/16 05:46:19;;;;;;;10.30;3.63;;;;;;;;;;5115098;28;20188;-83
2023/12/16 05:48:47;;;;;;;8.93;2.63;;;;;;;;;;5115122;28;20206;-84
2023/12/16 05:51:16;;;;;;;8.00;3.10;;;;;;;;;;5115280;28;20209;-84
2023/12/16 05:53:46;;;;;;;11.63;3.07;;;;;;;;;;5114908;28;20194;-84
2023/12/16 05:56:14;;;;;;;10.00;6.40;;;;;;;;;;5115409;28;20273;-84
2023/12/16 05:58:43;;;;;;;14.27;2.97;;;;;;;;;;5114735;28;20231;-84
2023/12/16 06:01:11;;;;;;;13.73;5.27;;;;;;;;;;5114612;28;20221;-83
2023/12/16 06:03:40;;;;;;;7.37;3.13;;;;;;;;;;5114931;28;20209;-84
2023/12/16 06:06:09;;;;;;;8.87;3.57;;;;;;;;;;5114938;28;20229;-84
2023/12/16 06:08:37;;;;;;;11.27;3.63;;;;;;;;;;5114453;28;20200;-84
2023/12/16 06:11:12;;;;;;;32.50;8.13;;;;;;;;;;5114114;28;20214;-84
2023/12/16 06:13:41;;;;;;;10.53;2.90;;;;;;;;;;5114756;28;20283;-83
2023/12/16 06:16:09;;;;;;;15.10;4.53;;;;;;;;;;5114947;28;20202;-83
2023/12/16 06:18:47;;;;;;;2.33;2.23;;;;;;;;;;5114490;28;20219;-84
2023/12/16 06:21:16;;;;;;;15.77;4.30;;;;;;;;;;5114528;28;20206;-84
2023/12/16 06:23:44;;;;;;;5.57;3.23;;;;;;;;;;5114526;28;20206;-84
2023/12/16 06:26:14;;;;;;;10.10;3.10;;;;;;;;;;5114541;28;20225;-84
2023/12/16 06:28:43;;;;;;;7.83;3.50;;;;;;;;;;5114086;28;20195;-84
2023/12/16 06:31:15;;;;;;;7.83;3.47;;;;;;;;;;5114522;28;20215;-84
2023/12/16 06:33:43;;;;;;;13.80;3.37;;;;;;;;;;5113963;28;20198;-84
2023/12/16 06:36:12;;;;;;;8.90;2.17;;;;;;;;;;5114127;28;20288;-84
2023/12/16 06:38:41;;;;;;;14.73;3.50;;;;;;;;;;5114110;28;20221;-84
2023/12/16 06:41:09;;;;;;;8.60;3.67;;;;;;;;;;5113867;28;20285;-84
2023/12/16 06:43:39;;;;;;;18.67;4.77;;;;;;;;;;5113849;28;20241;-84
2023/12/16 06:46:08;;;;;;;2.80;2.07;;;;;;;;;;5114459;28;20258;-84
2023/12/16 06:48:36;;;;;;;7.07;2.43;;;;;;;;;;5114229;28;20232;-84
2023/12/16 06:51:05;;;;;;;16.17;3.17;;;;;;;;;;5113404;28;20206;-84
2023/12/16 06:53:35;;;;;;;10.70;3.33;;;;;;;;;;5114020;28;20250;-87
2023/12/16 06:56:04;;;;;;;3.20;2.40;;;;;;;;;;5113867;28;20268;-87
2023/12/16 06:58:33;;;;;;;6.97;2.17;;;;;;;;;;5113879;28;20214;-84
2023/12/16 07:01:03;;;;;;;19.73;5.73;;;;;;;;;;5113150;28;20196;-84
2023/12/16 07:03:31;;;;;;;12.23;4.30;;;;;;;;;;5113983;28;20199;-84
2023/12/16 07:06:00;;;;;;;7.63;3.43;;;;;;;;;;5114409;28;20214;-84
2023/12/16 07:08:28;;;;;;;11.37;2.50;;;;;;;;;;5113596;28;20199;-84
2023/12/16 07:10:57;;;;;;;10.70;2.43;;;;;;;;;;5113545;28;20199;-84
2023/12/16 07:13:25;;;;;;;6.63;2.63;;;;;;;;;;5113430;28;20206;-84
2023/12/16 07:15:54;;;;;;;11.73;3.60;;;;;;;;;;5113472;28;20191;-84
2023/12/16 07:18:24;;;;;;;4.13;1.60;;;;;;;;;;5113610;28;20217;-83
2023/12/16 07:20:52;;;;;;;5.30;1.63;;;;;;;;;;5113104;28;20242;-84
2023/12/16 07:23:21;;;;;;;7.07;2.57;;;;;;;;;;5112964;28;20203;-84
2023/12/16 07:25:50;;;;;;;6.87;3.30;;;;;;;;;;5113236;28;20202;-84
2023/12/16 07:28:21;;;;;;;12.33;2.97;;;;;;;;;;5113233;28;20198;-84
2023/12/16 07:30:49;;;;;;;37.40;5.40;;;;;;;;;;5112774;28;20203;-84
2023/12/16 07:33:18;;;;;;;7.03;2.77;;;;;;;;;;5112765;28;20206;-84
2023/12/16 07:35:48;;;;;;;15.50;4.20;;;;;;;;;;5112937;28;20333;-84
2023/12/16 07:38:20;;;;;;;11.97;3.93;;;;;;;;;;5112834;28;20218;-84
2023/12/16 07:40:49;;;;;;;8.63;4.93;;;;;;;;;;5112595;28;20194;-84
2023/12/16 07:43:17;;;;;;;8.90;2.97;;;;;;;;;;5112322;28;20222;-84
2023/12/16 07:45:46;;;;;;;4.03;2.33;;;;;;;;;;5112918;28;20208;-83
2023/12/16 07:48:14;;;;;;;11.50;4.40;;;;;;;;;;5112970;28;20211;-84
2023/12/16 07:50:42;;;;;;;5.43;2.27;;;;;;;;;;5113268;28;20290;-84
2023/12/16 07:53:13;;;;;;;13.77;4.23;;;;;;;;;;5112688;28;20204;-84
2023/12/16 07:55:41;;;;;;;11.47;2.77;;;;;;;;;;5113327;28;20272;-87
2023/12/16 07:58:10;;;;;;;15.00;3.83;;;;;;;;;;5112521;28;20216;-87
2023/12/16 08:00:38;;;;;;;7.23;4.40;;;;;;;;;;5112321;28;20261;-87
2023/12/16 08:03:07;;;;;;;1.17;1.10;;;;;;;;;;5112723;28;20196;-87
2023/12/16 08:05:35;;;;;;;2.77;2.53;;;;;;;;;;5112869;28;20230;-84
2023/12/16 08:08:04;;;;;;;6.77;2.87;;;;;;;;;;5112714;28;20208;-84
2023/12/16 08:10:34;;;;;;;22.87;7.70;;;;;;;;;;5112625;28;20210;-84
2023/12/16 08:13:02;;;;;;;9.53;4.50;;;;;;;;;;5112653;28;20203;-84
2023/12/16 08:15:31;;;;;;;18.40;5.80;;;;;;;;;;5112604;28;20204;-84
2023/12/16 08:17:59;;;;;;;23.93;7.70;;;;;;;;;;5112479;28;20216;-87
2023/12/16 08:20:28;;;;;;;16.67;5.87;;;;;;;;;;5112559;28;20203;-86
2023/12/16 08:22:56;;;;;;;9.60;3.80;;;;;;;;;;5111901;28;20201;-87
2023/12/16 08:25:24;;;;;;;4.07;3.00;;;;;;;;;;5112516;28;20211;-84
2023/12/16 08:27:54;;;;;;;10.50;4.50;;;;;;;;;;5112660;28;20251;-84
2023/12/16 08:30:23;;;;;;;9.47;4.10;;;;;;;;;;5112465;28;20207;-84
2023/12/16 08:32:51;;;;;;;18.53;9.43;;;;;;;;;;5111954;28;20220;-84
2023/12/16 08:35:20;;;;;;;25.13;12.63;;;;;;;;;;5112089;28;20238;-84
2023/12/16 08:37:49;;;;;;;23.07;7.03;;;;;;;;;;5112416;28;20192;-83
2023/12/16 08:40:18;;;;;;;8.70;4.40;;;;;;;;;;5112844;28;20196;-83
2023/12/16 08:42:49;;;;;;;12.80;4.27;;;;;;;;;;5109479;28;20271;-82
2023/12/16 08:45:19;;;;;;;15.10;6.03;;;;;;;;;;5100189;28;20221;-83
2023/12/16 08:47:47;;;;;;;12.97;3.40;;;;;;;;;;5111644;28;20202;-83
2023/12/16 08:50:17;;;;;;;2.93;1.97;;;;;;;;;;5112038;28;20248;-83
2023/12/16 08:52:47;;;;;;;20.73;8.80;;;;;;;;;;5111721;28;20211;-83
2023/12/16 08:55:16;;;;;;;5.50;3.43;;;;;;;;;;5111464;28;20203;-83
2023/12/16 08:57:44;;;;;;;21.50;9.57;;;;;;;;;;5117070;28;20215;-83
2023/12/16 09:00:13;;;;;;;14.07;4.43;;;;;;;;;;5116542;28;20233;-83
2023/12/16 09:02:43;;;;;;;15.53;4.83;;;;;;;;;;5114743;28;20294;-84
2023/12/16 09:05:12;;;;;;;7.43;3.83;;;;;;;;;;5115881;28;20196;-82
2023/12/16 09:07:40;;;;;;;8.47;5.40;;;;;;;;;;5115853;28;20212;-83
2023/12/16 09:10:09;;;;;;;13.80;8.23;;;;;;;;;;5115606;28;20221;-82
2023/12/16 09:12:38;;;;;;;8.13;4.60;;;;;;;;;;5115482;28;20290;-83
2023/12/16 09:15:07;;;;;;;17.20;7.50;;;;;;;;;;5115784;28;20213;-82
2023/12/16 09:17:35;;;;;;;5.07;2.90;;;;;;;;;;5116261;28;20209;-83
2023/12/16 09:20:07;;;;;;;17.70;7.37;;;;;;;;;;5115772;28;20245;-84
2023/12/16 09:22:35;;;;;;;2.77;2.37;;;;;;;;;;5114982;28;20197;-84
2023/12/16 09:25:05;;;;;;;10.10;6.27;;;;;;;;;;5115479;28;20271;-84
2023/12/16 09:27:34;;;;;;;14.60;5.27;;;;;;;;;;5115355;28;20218;-84
2023/12/16 09:30:03;;;;;;;21.20;9.90;;;;;;;;;;5115805;28;20198;-84
2023/12/16 09:32:31;;;;;;;19.00;6.87;;;;;;;;;;5115064;28;20241;-84
2023/12/16 09:35:00;;;;;;;17.67;9.33;;;;;;;;;;5115108;28;20274;-84
2023/12/16 09:37:30;;;;;;;8.97;6.40;;;;;;;;;;5114925;28;20276;-83
2023/12/16 09:39:59;;;;;;;21.33;11.17;;;;;;;;;;5115019;28;20214;-84
2023/12/16 09:42:27;;;;;;;16.27;8.73;;;;;;;;;;5114610;28;20549;-84
2023/12/16 09:44:58;;;;;;;17.37;7.33;;;;;;;;;;5114495;28;20230;-83
2023/12/16 09:47:26;;;;;;;17.43;7.03;;;;;;;;;;5114846;28;20280;-84
2023/12/16 09:49:55;;;;;;;8.43;4.50;;;;;;;;;;5115249;28;20209;-84
2023/12/16 09:52:23;;;;;;;11.67;4.73;;;;;;;;;;5115066;28;20292;-84
2023/12/16 09:54:54;;;;;;;7.47;3.83;;;;;;;;;;5115059;28;20213;-83
2023/12/16 09:57:23;;;;;;;11.00;4.37;;;;;;;;;;5114616;28;20203;-84
2023/12/16 09:59:53;;;;;;;12.57;4.77;;;;;;;;;;5114362;28;20212;-84
2023/12/16 10:02:28;;;;;;;11.47;4.57;;;;;;;;;;5114160;28;20204;-84
2023/12/16 10:04:57;;;;;;;4.37;3.70;;;;;;;;;;5114454;28;20252;-83
2023/12/16 10:07:26;;;;;;;12.40;5.13;;;;;;;;;;5114414;28;20200;-84
2023/12/16 10:09:56;;;;;;;8.33;3.40;;;;;;;;;;5115169;28;20346;-84
2023/12/16 10:12:24;;;;;;;9.90;4.73;;;;;;;;;;5114391;28;20199;-83
2023/12/16 10:14:53;;;;;;;14.13;5.13;;;;;;;;;;5114048;28;20202;-83
2023/12/16 10:17:21;;;;;;;7.30;4.87;;;;;;;;;;5114463;28;20203;-83
2023/12/16 10:19:50;;;;;;;10.87;3.90;;;;;;;;;;5114133;28;20211;-83
2023/12/16 10:22:19;;;;;;;7.03;5.37;;;;;;;;;;5114188;28;20290;-83
2023/12/16 10:24:48;;;;;;;9.13;4.20;;;;;;;;;;5114063;28;20257;-83
2023/12/16 10:27:19;;;;;;;5.20;3.57;;;;;;;;;;5115297;28;20198;-83
2023/12/16 10:29:48;;;;;;;5.03;3.43;;;;;;;;;;5114708;28;20318;-83
2023/12/16 10:32:34;;;;;;;10.43;6.10;;;;;;;;;;5114613;28;20206;-83
2023/12/16 10:35:05;;;;;;;4.90;4.30;;;;;;;;;;5113554;28;20234;-83
2023/12/16 10:37:33;;;;;;;3.23;2.93;;;;;;;;;;5114056;28;20205;-83
2023/12/16 10:40:02;;;;;;;9.30;5.50;;;;;;;;;;5113875;28;20310;-83
2023/12/16 10:42:32;;;;;;;13.80;6.13;;;;;;;;;;5113963;28;20229;-83
2023/12/16 10:45:01;;;;;;;7.93;4.53;;;;;;;;;;5113837;28;20226;-83
2023/12/16 10:47:29;;;;;;;7.80;4.60;;;;;;;;;;5114274;28;20211;-83
2023/12/16 10:50:00;;;;;;;9.00;4.33;;;;;;;;;;5114221;28;20203;-83
2023/12/16 10:52:29;;;;;;;6.97;5.50;;;;;;;;;;5113532;28;20211;-83
2023/12/16 10:55:02;;;;;;;6.67;4.63;;;;;;;;;;5113441;28;20196;-83
2023/12/16 10:57:38;;;;;;;14.50;4.77;;;;;;;;;;5114320;28;20206;-83
2023/12/16 11:00:07;;;;;;;7.50;4.97;;;;;;;;;;5113534;28;20227;-87
2023/12/16 11:02:39;;;;;;;2.13;1.93;;;;;;;;;;5113522;28;20199;-86
2023/12/16 11:05:08;;;;;;;6.63;3.53;;;;;;;;;;5112950;28;20187;-87
2023/12/16 11:07:39;;;;;;;11.07;4.60;;;;;;;;;;5114252;28;20232;-88
2023/12/16 11:10:08;;;;;;;6.80;4.93;;;;;;;;;;5114022;28;20197;-86
2023/12/16 11:12:39;;;;;;;9.83;5.70;;;;;;;;;;5113463;28;20256;-87
2023/12/16 11:15:09;;;;;;;8.57;3.47;;;;;;;;;;5113088;28;20206;-87
2023/12/16 11:17:42;;;;;;;5.77;2.83;;;;;;;;;;5113288;28;20208;-87
2023/12/16 11:20:14;;;;;;;9.53;5.93;;;;;;;;;;5112378;28;20222;-87
2023/12/16 11:22:47;;;;;;;7.03;3.90;;;;;;;;;;5113208;28;20296;-87
2023/12/16 11:25:17;;;;;;;6.57;4.17;;;;;;;;;;5112838;28;20207;-86
2023/12/16 11:27:48;;;;;;;8.83;3.73;;;;;;;;;;5113766;28;20227;-86
2023/12/16 11:30:18;;;;;;;9.90;4.60;;;;;;;;;;5113022;28;20191;-86
2023/12/16 11:32:52;;;;;;;6.53;4.50;;;;;;;;;;5113085;28;20200;-86
2023/12/16 11:35:42;;;;;;;6.97;4.87;;;;;;;;;;5112228;28;20294;-86
2023/12/16 11:38:10;;;;;;;9.83;2.33;;;;;;;;;;5113637;28;20203;-87
2023/12/16 11:40:42;;;;;;;11.63;4.60;;;;;;;;;;5113081;28;20215;-87
2023/12/16 11:43:13;;;;;;;11.60;3.57;;;;;;;;;;5112530;28;20226;-86
2023/12/16 11:45:43;;;;;;;2.17;1.97;;;;;;;;;;5112543;28;20195;-87
2023/12/16 11:48:15;;;;;;;2.07;1.97;;;;;;;;;;5105126;28;20259;-86
2023/12/16 11:50:45;;;;;;;7.07;3.13;;;;;;;;;;5130733;27;20206;-86
2023/12/16 11:53:15;;;;;;;6.13;3.93;;;;;;;;;;5091647;28;20300;-86
2023/12/16 11:55:43;;;;;;;4.73;2.47;;;;;;;;;;5107625;28;20449;-86
2023/12/16 11:58:18;;;;;;;2.63;2.43;;;;;;;;;;5095360;28;20206;-86
2023/12/16 12:00:49;;;;;;;5.33;3.37;;;;;;;;;;5091943;28;20261;-87
2023/12/16 12:03:17;;;;;;;1.70;1.57;;;;;;;;;;5091948;28;20224;-87
2023/12/16 12:05:49;;;;;;;9.27;5.70;;;;;;;;;;5091879;28;20193;-87
2023/12/16 12:08:20;;;;;;;9.90;3.27;;;;;;;;;;5091728;28;20200;-87
2023/12/16 12:10:53;;;;;;;7.67;2.67;;;;;;;;;;5103373;28;20227;-87
2023/12/16 12:13:23;;;;;;;8.10;4.20;;;;;;;;;;5093713;28;20208;-87
2023/12/16 12:15:51;;;;;;;6.17;4.07;;;;;;;;;;5111800;28;20204;-87
2023/12/16 12:18:22;;;;;;;4.03;2.53;;;;;;;;;;5113105;28;20197;-88
2023/12/16 12:20:50;;;;;;;8.57;3.53;;;;;;;;;;5112058;28;20208;-87
2023/12/16 12:23:19;;;;;;;3.17;2.13;;;;;;;;;;5111688;28;20212;-87
2023/12/16 12:25:55;;;;;;;1.37;1.37;;;;;;;;;;5111698;28;20207;-86
2023/12/16 12:28:26;;;;;;;5.07;3.07;;;;;;;;;;5098766;28;20212;-86
2023/12/16 12:31:01;;;;;;;3.77;3.13;;;;;;;;;;5095465;28;20215;-87
2023/12/16 12:33:30;;;;;;;4.43;3.93;;;;;;;;;;5090027;28;20201;-87
2023/12/16 12:35:58;;;;;;;9.43;5.70;;;;;;;;;;5091911;28;20228;-86
2023/12/16 12:38:27;;;;;;;7.57;3.17;;;;;;;;;;5097989;28;20212;-87
2023/12/16 12:40:59;;;;;;;5.60;3.00;;;;;;;;;;5104717;28;20216;-86
2023/12/16 12:43:31;;;;;;;2.93;2.73;;;;;;;;;;5101720;28;20235;-86
2023/12/16 12:46:08;;;;;;;5.93;3.07;;;;;;;;;;5096645;28;20205;-87
2023/12/16 12:48:37;;;;;;;3.37;3.03;;;;;;;;;;5098322;28;20204;-87
2023/12/16 12:51:07;;;;;;;5.97;3.40;;;;;;;;;;5109172;28;20264;-87
2023/12/16 12:53:36;;;;;;;4.90;3.33;;;;;;;;;;5105990;28;20193;-87
2023/12/16 12:56:08;;;;;;;4.03;3.00;;;;;;;;;;5098288;28;20244;-86
2023/12/16 12:58:37;;;;;;;7.30;4.10;;;;;;;;;;5103730;28;20200;-86
2023/12/16 13:01:06;;;;;;;2.67;2.20;;;;;;;;;;5097025;28;20220;-87
2023/12/16 13:03:35;;;;;;;5.50;2.50;;;;;;;;;;5095991;28;20228;-87
2023/12/16 13:06:06;;;;;;;3.93;2.90;;;;;;;;;;5097940;28;20224;-87
2023/12/16 13:08:38;;;;;;;6.77;2.90;;;;;;;;;;5099253;28;20205;-86
2023/12/16 13:11:07;;;;;;;2.03;1.90;;;;;;;;;;5100041;28;20193;-86
2023/12/16 13:13:35;;;;;;;6.20;4.13;;;;;;;;;;5091599;28;20231;-87
2023/12/16 13:16:07;;;;;;;7.13;2.33;;;;;;;;;;5092459;28;20207;-86
2023/12/16 13:18:42;;;;;;;3.27;2.97;;;;;;;;;;5091843;28;20236;-87
2023/12/16 13:21:11;;;;;;;16.53;3.47;;;;;;;;;;5091345;28;20220;-87
2023/12/16 13:23:41;;;;;;;2.37;2.03;;;;;;;;;;5091483;28;20205;-86
2023/12/16 13:26:12;;;;;;;4.00;2.30;;;;;;;;;;5091039;28;20272;-87
2023/12/16 13:28:41;;;;;;;8.63;3.03;;;;;;;;;;5090813;28;20204;-86
2023/12/16 13:31:11;;;;;;;5.67;3.63;;;;;;;;;;5091605;28;20250;-86
2023/12/16 13:33:41;;;;;;;3.83;2.57;;;;;;;;;;5091552;28;20225;-86
2023/12/16 13:36:10;;;;;;;5.07;3.60;;;;;;;;;;5090834;28;20232;-86
2023/12/16 13:38:59;;;;;;;5.17;2.33;;;;;;;;;;5091379;28;20285;-86
2023/12/16 13:41:28;;;;;;;3.47;2.20;;;;;;;;;;5091248;28;20227;-87
2023/12/16 13:43:56;;;;;;;5.57;3.37;;;;;;;;;;5095184;28;20466;-87
2023/12/16 13:46:26;;;;;;;5.70;3.77;;;;;;;;;;5094390;28;20197;-86
2023/12/16 13:48:55;;;;;;;3.47;2.53;;;;;;;;;;5094762;28;20193;-87
2023/12/16 13:51:23;;;;;;;1.80;1.70;;;;;;;;;;5094966;28;20200;-87
2023/12/16 13:53:52;;;;;;;1.97;1.67;;;;;;;;;;5094690;28;20254;-86
2023/12/16 13:56:20;;;;;;;1.13;1.13;;;;;;;;;;5094298;28;20205;-87
2023/12/16 13:58:49;;;;;;;6.93;3.77;;;;;;;;;;5094519;28;20291;-87
2023/12/16 14:01:18;;;;;;;3.87;2.87;;;;;;;;;;5094562;28;20224;-86
2023/12/16 14:03:50;;;;;;;2.63;1.70;;;;;;;;;;5094693;28;20288;-87
2023/12/16 14:06:19;;;;;;;1.67;1.57;;;;;;;;;;5094159;28;20201;-86
2023/12/16 14:08:48;;;;;;;2.10;1.73;;;;;;;;;;5094888;28;20201;-86
2023/12/16 14:11:16;;;;;;;15.13;3.93;;;;;;;;;;5094782;28;20205;-86
2023/12/16 14:13:44;;;;;;;5.87;2.83;;;;;;;;;;5094553;28;20212;-86
2023/12/16 14:16:13;;;;;;;3.80;3.23;;;;;;;;;;5094321;28;20207;-86
2023/12/16 14:18:41;;;;;;;7.70;2.93;;;;;;;;;;5094273;28;20223;-87
2023/12/16 14:21:12;;;;;;;6.17;2.10;;;;;;;;;;5094646;28;20193;-87
2023/12/16 14:23:40;;;;;;;7.23;3.33;;;;;;;;;;5094338;28;20293;-87
2023/12/16 14:26:09;;;;;;;5.83;2.43;;;;;;;;;;5093634;28;20260;-86
2023/12/16 14:28:37;;;;;;;2.70;1.77;;;;;;;;;;5093812;28;20201;-86
2023/12/16 14:31:06;;;;;;;6.80;2.67;;;;;;;;;;5094481;28;20201;-87
2023/12/16 14:33:34;;;;;;;4.87;2.60;;;;;;;;;;5094477;28;20236;-87
2023/12/16 14:36:03;;;;;;;5.80;3.20;;;;;;;;;;5093498;28;20271;-86
2023/12/16 14:38:33;;;;;;;2.47;1.87;;;;;;;;;;5093593;28;20274;-87
2023/12/16 14:41:01;;;;;;;2.43;2.23;;;;;;;;;;5094076;28;20205;-86
2023/12/16 14:43:30;;;;;;;3.40;2.40;;;;;;;;;;5094137;28;20225;-87
2023/12/16 14:45:58;;;;;;;5.43;4.17;;;;;;;;;;5093566;28;20224;-87
2023/12/16 14:48:27;;;;;;;4.50;2.43;;;;;;;;;;5093041;28;20224;-86
2023/12/16 14:50:55;;;;;;;3.73;3.07;;;;;;;;;;5093885;28;20204;-87